createdAt,value
2018-10-05T00:01:21.134Z,101201.41
2018-10-05T00:03:50.686Z,101199.33
2018-10-05T00:06:20.296Z,101199.23
2018-10-05T00:08:49.882Z,101203.42
2018-10-05T00:11:19.455Z,101206.59
2018-10-05T00:13:49.035Z,101201.25
2018-10-05T00:16:18.582Z,101205.44
2018-10-05T00:18:48.078Z,101203.13
2018-10-05T00:21:17.634Z,101195.41
2018-10-05T00:23:47.235Z,101197.17
2018-10-05T00:26:16.737Z,101191.02
2018-10-05T00:28:46.290Z,101192.57
2018-10-05T00:31:15.818Z,101197.18
2018-10-05T00:33:45.323Z,101191.31
2018-10-05T00:36:14.850Z,101187.67
2018-10-05T00:38:44.418Z,101184.77
2018-10-05T00:41:13.923Z,101187.16
2018-10-05T00:43:43.522Z,101180.06
2018-10-05T00:46:13.014Z,101181.92
2018-10-05T00:48:42.638Z,101180.47
2018-10-05T00:51:12.207Z,101182.45
2018-10-05T00:53:41.755Z,101182.02
2018-10-05T00:56:11.268Z,101173.78
2018-10-05T00:58:40.859Z,101170.86
2018-10-05T01:01:10.402Z,101181.50
2018-10-05T01:03:39.931Z,101174.08
2018-10-05T01:06:09.511Z,101175.87
2018-10-05T01:08:39.004Z,101176.27
2018-10-05T01:11:08.623Z,101178.88
2018-10-05T01:13:38.175Z,101182.95
2018-10-05T01:16:07.763Z,101181.80
2018-10-05T01:18:37.270Z,101179.81
2018-10-05T01:21:06.879Z,101053.99
2018-10-05T01:23:36.428Z,101179.31
2018-10-05T01:26:06.002Z,101180.54
2018-10-05T01:28:35.535Z,101183.69
2018-10-05T01:31:05.131Z,101190.90
2018-10-05T01:33:34.634Z,101184.20
2018-10-05T01:36:04.178Z,101186.69
2018-10-05T01:38:33.675Z,101182.37
2018-10-05T01:41:03.265Z,101185.03
2018-10-05T01:43:32.874Z,101188.47
2018-10-05T01:46:02.406Z,101186.38
2018-10-05T01:48:31.975Z,101186.45
2018-10-05T01:51:01.526Z,101184.85
2018-10-05T01:53:31.112Z,101187.67
2018-10-05T01:56:00.620Z,101191.25
2018-10-05T01:58:30.278Z,101196.05
2018-10-05T02:00:59.796Z,101198.32
2018-10-05T02:03:29.362Z,101200.93
2018-10-05T02:05:59.054Z,101205.39
2018-10-05T02:08:28.695Z,101196.08
2018-10-05T02:10:58.190Z,101199.49
2018-10-05T02:13:27.746Z,101209.21
2018-10-05T02:15:57.262Z,101212.41
2018-10-05T02:18:26.814Z,101207.89
2018-10-05T02:20:56.343Z,101210.83
2018-10-05T02:23:25.879Z,101203.63
2018-10-05T02:25:55.394Z,101200.28
2018-10-05T02:28:25.029Z,101204.05
2018-10-05T02:30:54.575Z,101202.34
2018-10-05T02:33:24.166Z,101212.02
2018-10-05T02:35:53.720Z,101209.30
2018-10-05T02:38:23.267Z,101209.72
2018-10-05T02:40:52.772Z,101212.55
2018-10-05T02:43:22.343Z,101215.31
2018-10-05T02:45:51.902Z,101214.81
2018-10-05T02:48:21.418Z,101216.61
2018-10-05T02:50:50.973Z,101218.33
2018-10-05T02:53:20.474Z,101216.03
2018-10-05T02:55:49.978Z,101219.38
2018-10-05T02:58:19.542Z,101216.97
2018-10-05T03:00:59.888Z,101218.94
2018-10-05T03:03:29.420Z,101220.48
2018-10-05T03:05:58.954Z,101223.94
2018-10-05T03:08:28.523Z,101220.78
2018-10-05T03:10:58.019Z,101230.16
2018-10-05T03:13:27.566Z,101230.55
2018-10-05T03:15:57.110Z,101232.61
2018-10-05T03:18:26.599Z,101235.73
2018-10-05T03:20:56.131Z,101246.17
2018-10-05T03:23:25.649Z,101252.87
2018-10-05T03:25:55.194Z,101245.15
2018-10-05T03:28:24.746Z,101254.94
2018-10-05T03:30:54.242Z,101257.84
2018-10-05T03:33:23.817Z,101261.91
2018-10-05T03:35:53.326Z,101268.91
2018-10-05T03:38:22.874Z,101263.15
2018-10-05T03:40:52.411Z,101267.93
2018-10-05T03:43:21.951Z,101268.53
2018-10-05T03:45:51.526Z,101273.91
2018-10-05T03:48:21.068Z,101271.00
2018-10-05T03:50:50.626Z,101271.34
2018-10-05T03:53:20.175Z,101262.64
2018-10-05T03:55:49.759Z,101257.52
2018-10-05T03:58:19.307Z,101255.52
2018-10-05T04:00:48.839Z,101245.73
2018-10-05T04:03:18.383Z,101252.10
2018-10-05T04:05:47.931Z,101256.31
2018-10-05T04:08:17.475Z,101253.80
2018-10-05T04:10:47.037Z,101254.81
2018-10-05T04:13:16.574Z,101255.86
2018-10-05T04:15:46.127Z,101257.34
2018-10-05T04:18:15.698Z,101253.16
2018-10-05T04:20:45.239Z,101257.93
2018-10-05T04:23:14.788Z,101257.09
2018-10-05T04:25:44.371Z,101263.28
2018-10-05T04:28:13.859Z,101264.30
2018-10-05T04:30:43.489Z,101264.30
2018-10-05T04:33:12.996Z,101259.22
2018-10-05T04:35:42.583Z,101257.67
2018-10-05T04:38:12.112Z,101259.14
2018-10-05T04:40:41.676Z,101262.95
2018-10-05T04:43:11.195Z,101262.95
2018-10-05T04:45:40.778Z,101267.58
2018-10-05T04:48:10.316Z,101267.70
2018-10-05T04:50:39.968Z,101273.23
2018-10-05T04:53:09.971Z,101282.05
2018-10-05T04:55:39.516Z,101285.52
2018-10-05T04:58:09.037Z,101285.70
2018-10-05T05:00:38.656Z,101280.32
2018-10-05T05:03:08.375Z,101288.11
2018-10-05T05:05:37.955Z,101284.37
2018-10-05T05:08:07.531Z,101285.30
2018-10-05T05:10:37.245Z,101286.17
2018-10-05T05:13:06.886Z,101163.73
2018-10-05T05:15:37.386Z,101294.08
2018-10-05T05:18:07.052Z,101291.59
2018-10-05T05:20:36.619Z,101093.55
2018-10-05T05:23:06.521Z,101302.42
2018-10-05T05:25:36.114Z,101298.06
2018-10-05T05:28:05.955Z,101295.34
2018-10-05T05:30:35.858Z,101174.81
2018-10-05T05:33:05.630Z,101307.89
2018-10-05T05:35:35.303Z,101305.99
2018-10-05T05:38:04.888Z,101311.84
2018-10-05T05:40:34.499Z,101305.34
2018-10-05T05:43:04.048Z,101306.59
2018-10-05T05:45:33.612Z,101318.32
2018-10-05T05:48:03.180Z,101316.84
2018-10-05T05:50:32.810Z,101321.09
2018-10-05T05:53:02.362Z,101329.50
2018-10-05T05:55:31.916Z,101324.02
2018-10-05T05:58:01.443Z,101326.55
2018-10-05T06:00:31.004Z,101329.73
2018-10-05T06:03:00.586Z,101329.05
2018-10-05T06:05:30.175Z,101327.06
2018-10-05T06:07:59.768Z,101224.41
2018-10-05T06:10:29.345Z,101333.55
2018-10-05T06:12:58.910Z,101340.30
2018-10-05T06:15:28.611Z,101343.83
2018-10-05T06:17:58.227Z,101349.90
2018-10-05T06:20:27.772Z,101354.22
2018-10-05T06:22:57.308Z,101349.48
2018-10-05T06:25:26.897Z,101349.03
2018-10-05T06:27:56.464Z,101345.58
2018-10-05T06:30:26.024Z,101348.16
2018-10-05T06:32:55.629Z,101345.04
2018-10-05T06:35:25.223Z,101348.63
2018-10-05T06:37:54.829Z,101354.30
2018-10-05T06:40:24.336Z,101353.62
2018-10-05T06:42:53.953Z,101358.18
2018-10-05T06:45:23.575Z,101360.72
2018-10-05T06:47:53.111Z,101361.70
2018-10-05T06:50:22.727Z,101362.02
2018-10-05T06:52:52.274Z,101368.22
2018-10-05T06:55:21.837Z,101377.16
2018-10-05T06:57:51.414Z,101289.61
2018-10-05T07:00:21.107Z,101372.75
2018-10-05T07:02:50.616Z,101365.82
2018-10-05T07:05:20.200Z,101378.63
2018-10-05T07:07:49.884Z,101372.08
2018-10-05T07:10:19.407Z,101375.41
2018-10-05T07:12:48.975Z,101370.27
2018-10-05T07:15:18.567Z,101371.92
2018-10-05T07:17:48.124Z,101366.61
2018-10-05T07:20:17.740Z,101366.54
2018-10-05T07:22:47.386Z,101371.32
2018-10-05T07:25:16.934Z,101365.16
2018-10-05T07:27:46.455Z,101359.02
2018-10-05T07:30:16.033Z,101357.91
2018-10-05T07:32:45.608Z,101359.65
2018-10-05T07:35:15.144Z,101360.25
2018-10-05T07:37:44.723Z,101254.66
2018-10-05T07:40:14.431Z,101358.78
2018-10-05T07:42:43.979Z,101354.96
2018-10-05T07:45:13.575Z,101350.31
2018-10-05T07:47:44.137Z,101352.02
2018-10-05T07:50:13.747Z,101344.84
2018-10-05T07:52:43.319Z,101356.48
2018-10-05T07:55:12.930Z,101354.38
2018-10-05T07:57:42.604Z,101353.50
2018-10-05T08:00:12.119Z,101345.72
2018-10-05T08:02:41.687Z,101347.09
2018-10-05T08:05:11.239Z,101349.18
2018-10-05T08:07:40.776Z,101348.72
2018-10-05T08:10:10.442Z,101344.77
2018-10-05T08:12:39.974Z,101341.05
2018-10-05T08:15:09.530Z,101341.84
2018-10-05T08:17:39.084Z,101338.75
2018-10-05T08:20:08.672Z,101334.28
2018-10-05T08:22:38.250Z,101339.97
2018-10-05T08:25:07.943Z,101340.31
2018-10-05T08:27:37.496Z,101336.94
2018-10-05T08:30:07.715Z,101335.45
2018-10-05T08:32:37.271Z,101335.02
2018-10-05T08:35:06.808Z,101331.57
2018-10-05T08:37:36.426Z,101325.20
2018-10-05T08:40:07.060Z,101324.80
2018-10-05T08:42:37.908Z,101321.50
2018-10-05T08:45:07.603Z,101323.87
2018-10-05T08:47:37.960Z,101316.28
2018-10-05T08:50:07.656Z,101321.23
2018-10-05T08:52:37.872Z,101314.53
2018-10-05T08:55:07.480Z,101302.39
2018-10-05T08:57:37.138Z,101305.61
2018-10-05T09:00:06.802Z,101305.68
2018-10-05T09:02:36.419Z,101300.56
2018-10-05T09:05:06.096Z,101301.18
2018-10-05T09:07:35.698Z,101205.33
2018-10-05T09:10:05.295Z,101200.22
2018-10-05T09:12:34.887Z,101298.42
2018-10-05T09:15:04.467Z,101290.19
2018-10-05T09:17:34.082Z,101285.39
2018-10-05T09:20:03.683Z,101284.08
2018-10-05T09:22:33.236Z,101284.01
2018-10-05T09:25:02.765Z,101277.55
2018-10-05T09:27:32.312Z,101283.63
2018-10-05T09:30:01.858Z,101280.58
2018-10-05T09:32:32.744Z,101279.36
2018-10-05T09:35:02.303Z,101277.00
2018-10-05T09:37:31.874Z,101272.58
2018-10-05T09:40:01.454Z,101272.43
2018-10-05T09:42:31.094Z,101269.35
2018-10-05T09:45:00.730Z,101263.84
2018-10-05T09:47:30.221Z,101264.08
2018-10-05T09:49:59.803Z,101263.42
2018-10-05T09:52:29.513Z,101252.57
2018-10-05T09:54:58.970Z,101247.07
2018-10-05T09:57:28.562Z,101243.27
2018-10-05T09:59:58.227Z,101240.31
2018-10-05T10:02:32.842Z,101244.34
2018-10-05T10:05:02.453Z,101246.36
2018-10-05T10:07:32.060Z,101240.09
2018-10-05T10:10:01.637Z,101241.20
2018-10-05T10:12:31.171Z,101241.00
2018-10-05T10:15:00.733Z,101237.76
2018-10-05T10:17:30.317Z,101241.13
2018-10-05T10:19:59.847Z,101237.55
2018-10-05T10:22:29.526Z,101231.25
2018-10-05T10:24:59.067Z,101227.13
2018-10-05T10:27:28.658Z,101216.99
2018-10-05T10:29:58.235Z,101214.48
2018-10-05T10:32:27.779Z,101212.00
2018-10-05T10:34:57.284Z,101209.01
2018-10-05T10:37:26.866Z,101202.67
2018-10-05T10:39:56.528Z,101198.56
2018-10-05T10:42:26.182Z,101196.37
2018-10-05T10:44:55.657Z,101198.85
2018-10-05T10:47:27.766Z,101195.25
2018-10-05T10:49:57.319Z,101184.30
2018-10-05T10:52:26.971Z,101182.37
2018-10-05T10:54:56.600Z,101181.09
2018-10-05T10:57:27.878Z,101175.61
2018-10-05T11:02:39.735Z,101170.98
2018-10-05T11:05:09.454Z,101164.64
2018-10-05T11:07:39.051Z,101155.02
2018-10-05T11:10:08.642Z,101152.52
2018-10-05T11:12:38.885Z,101140.63
2018-10-05T11:15:08.538Z,101142.02
2018-10-05T11:17:38.362Z,101137.64
2018-10-05T11:20:07.965Z,101138.77
2018-10-05T11:22:37.646Z,101128.05
2018-10-05T11:25:07.776Z,101134.65
2018-10-05T11:27:37.335Z,101130.50
2018-10-05T11:30:07.818Z,101125.56
2018-10-05T11:32:37.527Z,101128.01
2018-10-05T11:35:07.351Z,101118.11
2018-10-05T11:37:36.873Z,101118.42
2018-10-05T11:40:06.582Z,101115.42
2018-10-05T11:42:36.179Z,101112.98
2018-10-05T11:45:05.731Z,101111.86
2018-10-05T11:47:35.286Z,101107.48
2018-10-05T11:50:04.938Z,101103.60
2018-10-05T11:52:34.621Z,101099.21
2018-10-05T11:55:04.260Z,101097.06
2018-10-05T11:57:33.818Z,101099.56
2018-10-05T12:00:03.476Z,101094.05
2018-10-05T12:02:33.043Z,101091.04
2018-10-05T12:05:02.631Z,101089.66
2018-10-05T12:07:32.175Z,101091.34
2018-10-05T12:10:01.715Z,100857.34
2018-10-05T12:12:31.440Z,101081.14
2018-10-05T12:15:01.002Z,101074.81
2018-10-05T12:17:30.557Z,101085.30
2018-10-05T12:20:00.155Z,101083.66
2018-10-05T12:22:29.678Z,101092.81
2018-10-05T12:24:59.402Z,100959.54
2018-10-05T12:27:29.162Z,101078.77
2018-10-05T12:29:58.978Z,101072.69
2018-10-05T12:32:28.547Z,101067.47
2018-10-05T12:34:58.092Z,101070.52
2018-10-05T12:37:27.679Z,101063.34
2018-10-05T12:39:57.253Z,100978.11
2018-10-05T12:42:27.046Z,101075.75
2018-10-05T12:44:56.583Z,101077.13
2018-10-05T12:47:26.425Z,101072.44
2018-10-05T12:49:55.962Z,101068.03
2018-10-05T12:52:25.626Z,101065.83
2018-10-05T12:54:55.320Z,101066.12
2018-10-05T12:57:24.896Z,101058.95
2018-10-05T12:59:54.568Z,101062.27
2018-10-05T13:02:24.135Z,101059.50
2018-10-05T13:04:53.721Z,101054.81
2018-10-05T13:07:23.331Z,101059.50
2018-10-05T13:09:52.959Z,101061.16
2018-10-05T13:12:22.501Z,101049.58
2018-10-05T13:14:52.079Z,101047.09
2018-10-05T13:17:21.710Z,101060.05
2018-10-05T13:19:51.267Z,101065.02
2018-10-05T13:22:20.907Z,101051.49
2018-10-05T13:24:50.494Z,101051.49
2018-10-05T13:27:20.113Z,101053.16
2018-10-05T13:29:49.906Z,101053.97
2018-10-05T13:32:19.448Z,100990.58
2018-10-05T13:34:48.991Z,101041.86
2018-10-05T13:37:18.670Z,101043.23
2018-10-05T13:39:48.163Z,101031.11
2018-10-05T13:42:17.735Z,101032.74
2018-10-05T13:44:47.258Z,100912.82
2018-10-05T13:47:16.823Z,101021.72
2018-10-05T13:49:46.425Z,101036.05
2018-10-05T13:52:15.932Z,101026.13
2018-10-05T13:54:45.539Z,101021.72
2018-10-05T13:57:15.095Z,101029.45
2018-10-05T13:59:44.652Z,101029.72
2018-10-05T14:02:14.281Z,101034.14
2018-10-05T14:04:43.854Z,101028.33
2018-10-05T14:07:13.475Z,101017.05
2018-10-05T14:09:42.984Z,101012.06
2018-10-05T14:12:12.544Z,101016.77
2018-10-05T14:14:42.102Z,101014.84
2018-10-05T14:17:11.652Z,101014.56
2018-10-05T14:19:41.699Z,101020.34
2018-10-05T14:22:11.255Z,101015.95
2018-10-05T14:24:40.779Z,101020.34
2018-10-05T14:27:10.782Z,101021.98
2018-10-05T14:29:40.368Z,101015.93
2018-10-05T14:32:10.107Z,101019.51
2018-10-05T14:34:39.801Z,101020.34
2018-10-05T14:37:09.435Z,101008.77
2018-10-05T14:39:38.995Z,101011.47
2018-10-05T14:42:08.592Z,101009.27
2018-10-05T14:44:38.123Z,101014.48
2018-10-05T14:47:07.675Z,100998.25
2018-10-05T14:49:37.327Z,101001.27
2018-10-05T14:52:06.809Z,100999.34
2018-10-05T14:54:36.327Z,100996.03
2018-10-05T14:57:05.873Z,101000.96
2018-10-05T14:59:35.426Z,101002.60
2018-10-05T15:02:05.034Z,101000.12
2018-10-05T15:04:34.566Z,100998.19
2018-10-05T15:07:04.191Z,101004.51
2018-10-05T15:09:33.725Z,100999.27
2018-10-05T15:12:03.279Z,101002.02
2018-10-05T15:14:32.762Z,101012.18
2018-10-05T15:17:02.297Z,101011.06
2018-10-05T15:19:31.774Z,101017.94
2018-10-05T15:22:01.411Z,101008.83
2018-10-05T15:24:30.931Z,101006.89
2018-10-05T15:27:00.466Z,101004.38
2018-10-05T15:29:30.138Z,101005.17
2018-10-05T15:31:59.802Z,100995.75
2018-10-05T15:34:29.341Z,100999.31
2018-10-05T15:36:58.893Z,100997.62
2018-10-05T15:39:28.444Z,101002.24
2018-10-05T15:41:58.002Z,101004.94
2018-10-05T15:44:27.595Z,101008.48
2018-10-05T15:47:00.234Z,101004.53
2018-10-05T15:49:30.688Z,100999.28
2018-10-05T15:52:00.335Z,101004.44
2018-10-05T15:54:29.866Z,101001.92
2018-10-05T15:56:59.427Z,101004.00
2018-10-05T15:59:29.427Z,101000.09
2018-10-05T16:01:58.983Z,101006.30
2018-10-05T16:04:28.838Z,101004.59
2018-10-05T16:06:58.460Z,101006.13
2018-10-05T16:09:27.962Z,101008.82
2018-10-05T16:11:57.583Z,101003.54
2018-10-05T16:14:27.140Z,101006.20
2018-10-05T16:16:56.751Z,101014.34
2018-10-05T16:19:26.254Z,101020.85
2018-10-05T16:21:55.742Z,101021.05
2018-10-05T16:24:35.516Z,101018.24
2018-10-05T16:27:05.095Z,101021.70
2018-10-05T16:29:34.822Z,101021.09
2018-10-05T16:32:04.332Z,101024.31
2018-10-05T16:34:34.330Z,101028.59
2018-10-05T16:37:04.250Z,101033.36
2018-10-05T16:39:33.991Z,101032.36
2018-10-05T16:42:03.583Z,101040.67
2018-10-05T16:44:33.134Z,101037.53
2018-10-05T16:47:02.662Z,101040.45
2018-10-05T16:49:32.199Z,101038.41
2018-10-05T16:52:01.683Z,101033.09
2018-10-05T16:54:31.274Z,101028.61
2018-10-05T16:57:00.786Z,101039.23
2018-10-05T16:59:30.318Z,101035.84
2018-10-05T17:01:59.907Z,101036.89
2018-10-05T17:04:29.459Z,101040.28
2018-10-05T17:06:58.960Z,101042.16
2018-10-05T17:09:28.490Z,101045.09
2018-10-05T17:11:57.986Z,101042.25
2018-10-05T17:14:27.519Z,101050.73
2018-10-05T17:16:57.087Z,101046.56
2018-10-05T17:19:26.638Z,101047.84
2018-10-05T17:21:56.186Z,101051.38
2018-10-05T17:24:25.758Z,101042.53
2018-10-05T17:26:55.286Z,101044.09
2018-10-05T17:29:24.854Z,101045.62
2018-10-05T17:31:54.371Z,101049.06
2018-10-05T17:34:24.020Z,101052.30
2018-10-05T17:36:53.593Z,101051.09
2018-10-05T17:39:23.084Z,101051.52
2018-10-05T17:41:52.643Z,101060.09
2018-10-05T17:44:22.166Z,101060.83
2018-10-05T17:46:51.751Z,101060.16
2018-10-05T17:49:21.359Z,101057.76
2018-10-05T17:51:50.851Z,101065.01
2018-10-05T17:54:20.383Z,101067.57
2018-10-05T17:56:49.946Z,101071.98
2018-10-05T17:59:19.556Z,101066.98
2018-10-05T18:01:49.147Z,101069.30
2018-10-05T18:04:18.649Z,101070.02
2018-10-05T18:06:48.139Z,101069.33
2018-10-05T18:09:17.700Z,101076.57
2018-10-05T18:11:47.315Z,101078.89
2018-10-05T18:14:16.825Z,101081.52
2018-10-05T18:16:46.418Z,101089.89
2018-10-05T18:19:15.968Z,101085.91
2018-10-05T18:21:45.511Z,101090.86
2018-10-05T18:24:15.023Z,101092.12
2018-10-05T18:26:44.607Z,101096.61
2018-10-05T18:29:14.138Z,101101.84
2018-10-05T18:31:43.674Z,101097.92
2018-10-05T18:34:13.245Z,101096.55
2018-10-05T18:36:42.751Z,101095.36
2018-10-05T18:39:12.247Z,101095.30
2018-10-05T18:41:41.854Z,101095.16
2018-10-05T18:44:11.485Z,101101.53
2018-10-05T18:46:40.961Z,101101.32
2018-10-05T18:49:10.517Z,101104.73
2018-10-05T18:51:40.129Z,101098.60
2018-10-05T18:54:09.706Z,101107.25
2018-10-05T18:56:50.038Z,101112.42
2018-10-05T18:59:19.613Z,101116.73
2018-10-05T19:01:49.204Z,101106.08
2018-10-05T19:04:18.763Z,101106.56
2018-10-05T19:06:48.289Z,101107.70
2018-10-05T19:09:17.847Z,101111.48
2018-10-05T19:11:47.362Z,101111.41
2018-10-05T19:14:16.895Z,101114.24
2018-10-05T19:16:46.441Z,101110.08
2018-10-05T19:19:16.019Z,101118.71
2018-10-05T19:21:45.559Z,101114.39
2018-10-05T19:24:15.144Z,101113.12
2018-10-05T19:26:44.702Z,101120.16
2018-10-05T19:29:14.308Z,101122.76
2018-10-05T19:31:43.894Z,101122.69
2018-10-05T19:34:13.419Z,101134.72
2018-10-05T19:36:43.018Z,101133.51
2018-10-05T19:39:12.874Z,101133.76
2018-10-05T19:41:42.542Z,101139.22
2018-10-05T19:44:12.343Z,101143.81
2018-10-05T19:46:41.925Z,101138.00
2018-10-05T19:49:11.494Z,101140.41
2018-10-05T19:51:41.028Z,101148.91
2018-10-05T19:54:10.634Z,101145.26
2018-10-05T19:56:40.170Z,101145.26
2018-10-05T19:59:09.697Z,101138.37
2018-10-05T20:01:39.280Z,101149.21
2018-10-05T20:04:08.815Z,101149.89
2018-10-05T20:06:38.423Z,101145.95
2018-10-05T20:09:08.466Z,101153.30
2018-10-05T20:11:38.018Z,101151.69
2018-10-05T20:14:07.579Z,101154.95
2018-10-05T20:16:37.151Z,101156.78
2018-10-05T20:19:06.898Z,101153.98
2018-10-05T20:21:36.406Z,101155.25
2018-10-05T20:24:06.042Z,101150.55
2018-10-05T20:26:35.550Z,101149.72
2018-10-05T20:29:05.132Z,101152.06
2018-10-05T20:31:34.674Z,101151.38
2018-10-05T20:34:04.207Z,101150.91
2018-10-05T20:36:34.039Z,101152.59
2018-10-05T20:39:04.307Z,101141.84
2018-10-05T20:41:33.855Z,101147.97
2018-10-05T20:44:03.403Z,101142.66
2018-10-05T20:46:33.078Z,101141.41
2018-10-05T20:49:03.116Z,101141.55
2018-10-05T20:51:32.775Z,101134.55
2018-10-05T20:54:02.454Z,101137.20
2018-10-05T20:56:31.966Z,101133.80
2018-10-05T20:59:01.919Z,101141.79
2018-10-05T21:01:31.460Z,101144.14
2018-10-05T21:04:00.998Z,101138.44
2018-10-05T21:06:30.582Z,101132.69
2018-10-05T21:09:00.076Z,101131.14
2018-10-05T21:11:29.651Z,101127.52
2018-10-05T21:13:59.160Z,101129.44
2018-10-05T21:16:28.736Z,101004.75
2018-10-05T21:18:58.231Z,101128.13
2018-10-05T21:21:27.759Z,101123.14
2018-10-05T21:23:57.259Z,101124.31
2018-10-05T21:26:26.883Z,101127.38
2018-10-05T21:28:56.371Z,101129.12
2018-10-05T21:31:25.956Z,101127.97
2018-10-05T21:33:55.494Z,101130.48
2018-10-05T21:36:25.017Z,101135.84
2018-10-05T21:38:54.562Z,101127.35
2018-10-05T21:41:24.122Z,101127.56
2018-10-05T21:43:53.663Z,101130.52
2018-10-05T21:46:23.202Z,101133.00
2018-10-05T21:48:52.762Z,101132.92
2018-10-05T21:51:22.338Z,101134.95
2018-10-05T21:53:51.835Z,101139.44
2018-10-05T21:56:21.388Z,101140.59
2018-10-05T21:58:50.896Z,101143.53
2018-10-05T22:01:20.523Z,101135.61
2018-10-05T22:03:50.058Z,101134.66
2018-10-05T22:06:19.899Z,101139.58
2018-10-05T22:08:49.398Z,101140.44
2018-10-05T22:11:18.922Z,101137.09
2018-10-05T22:13:48.491Z,101131.03
2018-10-05T22:16:18.082Z,101133.96
2018-10-05T22:18:47.590Z,101133.34
2018-10-05T22:21:17.151Z,101131.28
2018-10-05T22:23:46.682Z,101135.66
2018-10-05T22:26:16.254Z,101125.64
2018-10-05T22:28:45.754Z,101125.30
2018-10-05T22:31:15.288Z,101128.85
2018-10-05T22:33:44.802Z,101122.05
2018-10-05T22:36:14.383Z,101128.47
2018-10-05T22:38:44.050Z,101130.48
2018-10-05T22:41:13.594Z,101134.89
2018-10-05T22:43:43.127Z,101135.00
2018-10-05T22:46:12.663Z,101141.18
2018-10-05T22:48:42.175Z,101144.02
2018-10-05T22:51:11.719Z,101141.94
2018-10-05T22:53:41.236Z,101146.02
2018-10-05T22:56:10.778Z,101147.49
2018-10-05T22:58:40.295Z,101151.47
2018-10-05T23:01:09.874Z,101145.00
2018-10-05T23:03:39.450Z,101149.28
2018-10-05T23:06:08.986Z,101152.64
2018-10-05T23:08:38.592Z,101153.28
2018-10-05T23:11:08.131Z,101152.23
2018-10-05T23:13:37.848Z,101158.31
2018-10-05T23:16:07.712Z,101155.80
2018-10-05T23:18:37.322Z,101159.06
2018-10-05T23:21:07.001Z,101153.51
2018-10-05T23:23:36.544Z,101154.77
2018-10-05T23:26:06.142Z,101152.88
2018-10-05T23:28:35.848Z,101152.25
2018-10-05T23:31:05.402Z,101154.23
2018-10-05T23:33:34.932Z,101156.13
2018-10-05T23:36:04.474Z,101161.23
2018-10-05T23:38:33.998Z,101164.38
2018-10-05T23:41:03.542Z,101156.22
2018-10-05T23:43:33.062Z,101160.00
2018-10-05T23:46:02.603Z,101156.66
2018-10-05T23:48:32.202Z,101153.41
2018-10-05T23:51:01.743Z,101045.80
2018-10-05T23:53:31.309Z,101142.84
2018-10-05T23:56:00.854Z,101146.52
2018-10-05T23:58:30.350Z,101140.98
